Richmond, MN (56368)

11:59 PM CDT on July 23, 2016 (GMT -0500)
Century Estates | | Change Station

Elev 1165 ft 45.44 °N, 94.43 °W | Updated 4 minutes ago

Scattered Clouds
Scattered Clouds
73.1 °F
Feels Like 73.1 °F
N
2.0
Wind Variable Wind from SSE
Gusts 3.0 mph

Today
High -- | Low -- °F
--% Chance of Precip.
Yesterday
High -- | Low -- °F
Precip. -- in
Pressure 29.77 in
Visibility 10.0 miles
Clouds Scattered Clouds 400 ft
Dew Point 72 °F
Humidity 97%
Rainfall 2.38 in
Snow Depth Not available.
5:52 AM 8:55 PM
Waning Gibbous, 79% visible
METAR KPEX 240454Z AUTO 14006KT 10SM SCT004 23/23 A2977 RMK AO2 LTG DSNT W T02330234
Pressure 29.77 in
Visibility 10.0 miles
Clouds Scattered Clouds 400 ft
Dew Point 72 °F
Humidity 97%
Rainfall 2.38 in
Snow Depth Not available.
5:52 AM 8:55 PM
Waning Gibbous, 79% visible
METAR KPEX 240454Z AUTO 14006KT 10SM SCT004 23/23 A2977 RMK AO2 LTG DSNT W T02330234

10-Day Weather Forecast

Almanac

Astronomy

Jul. 23, 2016 Rise Set
Actual Time
Civil Twilight
Nautical Twilight
Astronomical Twilight
Moon
Length of Visible Light
Length of Day
Tomorrow will be .
, % of the Moon is Illuminated

Today's Extremes

State Highs State Lows

Community

WunderPhotos

Upload Photos

1,927,030 photos uploaded!

WunderBlog® & News

Nearby

Air Quality

  Air Quality AQ Index Pollutant
Not available.

Snow Depth

Station Depth Elevation

Earthquake Activity

City Distance Mag. Time & Date
Minimum magnitude displayed is 2.5.

Coastal Water Temperatures

Place Temperature

Stations

Nearby Weather Stations

Station Location Temp. Windchill Dew Point Humidity Wind Precip. Elev Updated Type
                   

Watches & Warnings

There are currently no watches in effect.